Terminal Aerodrome Forecast
Issued by NWS Upton, NY

Home | Current Version | Previous Version | Text Only | Print | Product List | Glossary On
Versions: 1 2 3 4 5 6 7 8 9 10 11 12 13 14 15 16 17 18 19 20 21 22 23 24 25 26 27 28 29 30 31 32 33
574
FTUS41 KOKX 250309 AAB
TAFBDR
TAF AMD
KBDR 250309Z 2503/2524 03005KT 6SM BR VCSH OVC050
     FM250800 06010KT 5SM BR BKN015
     FM251000 07015G24KT 2SM RA BR OVC008
      TEMPO 2510/2512 SCT008 OVC020
     FM251200 08018G26KT 1SM RA BR OVC010
     FM251800 06011KT 2SM -RA BR OVC005
     FM252200 35004KT 4SM BR BKN008=

USA.gov is the U.S. government's official web portal to all federal, state and local government web resources and services.